createdAt,value
2023-04-20T00:00:24.354Z,8.15
2023-04-20T00:02:56.635Z,7.22
2023-04-20T00:05:30.655Z,7.38
2023-04-20T00:08:04.048Z,8.02
2023-04-20T00:10:36.306Z,8.18
2023-04-20T00:13:08.342Z,11.13
2023-04-20T00:15:40.639Z,10.35
2023-04-20T00:18:12.855Z,6.75
2023-04-20T00:20:45.175Z,10.82
2023-04-20T00:23:17.370Z,12.32
2023-04-20T00:25:49.881Z,10.82
2023-04-20T00:28:22.221Z,6.90
2023-04-20T00:30:54.397Z,9.50
2023-04-20T00:33:26.599Z,10.07
2023-04-20T00:35:58.976Z,6.28
2023-04-20T00:38:31.453Z,7.07
2023-04-20T00:41:03.995Z,8.32
2023-04-20T00:43:36.276Z,8.05
2023-04-20T00:46:11.809Z,7.80
2023-04-20T00:48:44.515Z,6.22
2023-04-20T00:51:16.761Z,6.28
2023-04-20T00:53:50.672Z,7.97
2023-04-20T00:56:22.927Z,9.32
2023-04-20T00:58:55.565Z,6.10
2023-04-20T01:01:27.849Z,8.43
2023-04-20T01:04:00.178Z,5.32
2023-04-20T01:06:33.710Z,14.90
2023-04-20T01:09:06.023Z,7.60
2023-04-20T01:11:41.418Z,5.13
2023-04-20T01:14:13.774Z,9.57
2023-04-20T01:16:47.413Z,7.25
2023-04-20T01:19:22.521Z,6.70
2023-04-20T01:21:54.874Z,6.82
2023-04-20T01:24:27.890Z,6.57
2023-04-20T01:27:01.790Z,7.25
2023-04-20T01:29:37.139Z,10.77
2023-04-20T01:32:09.682Z,5.07
2023-04-20T01:34:42.235Z,10.05
2023-04-20T01:37:15.589Z,8.43
2023-04-20T01:39:48.151Z,7.78
2023-04-20T01:42:20.708Z,7.05
2023-04-20T01:44:54.291Z,5.22
2023-04-20T01:47:26.812Z,8.32
2023-04-20T01:49:59.372Z,8.95
2023-04-20T01:52:31.737Z,5.75
2023-04-20T01:55:04.218Z,8.65
2023-04-20T01:57:36.687Z,12.10
2023-04-20T02:00:12.614Z,5.55
2023-04-20T02:02:45.049Z,9.38
2023-04-20T02:05:17.555Z,10.70
2023-04-20T02:07:49.617Z,9.95
2023-04-20T02:10:21.957Z,6.00
2023-04-20T02:12:54.684Z,11.27
2023-04-20T02:15:27.042Z,6.15
2023-04-20T02:17:59.749Z,8.50
2023-04-20T02:20:32.080Z,10.85
2023-04-20T02:23:04.392Z,7.05
2023-04-20T02:25:36.898Z,6.55
2023-04-20T02:28:11.923Z,6.03
2023-04-20T02:30:44.358Z,12.32
2023-04-20T02:33:19.922Z,8.30
2023-04-20T02:35:52.218Z,11.38
2023-04-20T02:38:24.495Z,9.77
2023-04-20T02:40:56.679Z,12.80
2023-04-20T02:43:28.999Z,8.15
2023-04-20T02:46:01.406Z,7.65
2023-04-20T02:48:33.567Z,10.52
2023-04-20T02:51:05.808Z,8.10
2023-04-20T02:53:37.957Z,11.10
2023-04-20T02:56:10.319Z,8.13
2023-04-20T02:58:42.744Z,5.90
2023-04-20T03:01:15.238Z,7.75
2023-04-20T03:03:47.649Z,10.52
2023-04-20T03:06:19.966Z,7.53
2023-04-20T03:08:52.464Z,14.10
2023-04-20T03:11:24.743Z,9.48
2023-04-20T03:13:57.076Z,13.77
2023-04-20T03:16:29.258Z,8.82
2023-04-20T03:19:01.487Z,8.50
2023-04-20T03:21:35.126Z,5.50
2023-04-20T03:24:10.386Z,9.77
2023-04-20T03:26:43.141Z,7.30
2023-04-20T03:29:15.960Z,7.32
2023-04-20T03:31:49.679Z,7.95
2023-04-20T03:34:25.090Z,7.70
2023-04-20T03:36:57.453Z,10.57
2023-04-20T03:39:29.741Z,6.18
2023-04-20T03:42:06.851Z,7.80
2023-04-20T03:44:39.152Z,7.68
2023-04-20T03:47:11.568Z,8.45
2023-04-20T03:49:46.664Z,8.18
2023-04-20T03:52:18.989Z,6.30
2023-04-20T03:54:51.745Z,7.18
2023-04-20T03:57:31.136Z,10.23
2023-04-20T04:00:04.840Z,9.02
2023-04-20T04:02:38.286Z,10.25
2023-04-20T04:05:13.036Z,10.48
2023-04-20T04:07:46.747Z,10.38
2023-04-20T04:10:19.829Z,15.65
2023-04-20T04:12:52.061Z,9.63
2023-04-20T04:15:24.503Z,11.90
2023-04-20T04:17:56.789Z,16.50
2023-04-20T04:20:28.971Z,13.88
2023-04-20T04:23:01.103Z,15.70
2023-04-20T04:25:33.875Z,10.25
2023-04-20T04:28:06.681Z,8.82
2023-04-20T04:30:48.560Z,10.20
2023-04-20T04:33:22.070Z,11.75
2023-04-20T04:35:55.557Z,9.77
2023-04-20T04:38:37.297Z,11.18
2023-04-20T04:41:09.648Z,12.77
2023-04-20T04:43:42.468Z,7.43
2023-04-20T04:46:18.264Z,9.80
2023-04-20T04:48:50.803Z,14.68
2023-04-20T04:51:22.922Z,12.18
2023-04-20T04:53:57.814Z,10.55
2023-04-20T04:56:29.912Z,14.20
2023-04-20T04:59:02.099Z,12.55
2023-04-20T05:01:40.388Z,11.40
2023-04-20T05:04:12.586Z,14.05
2023-04-20T05:06:45.042Z,11.85
2023-04-20T05:09:17.471Z,13.48
2023-04-20T05:11:49.766Z,11.90
2023-04-20T05:14:21.854Z,8.68
2023-04-20T05:16:53.998Z,11.10
2023-04-20T05:19:26.333Z,9.15
2023-04-20T05:21:58.455Z,19.13
2023-04-20T05:24:30.761Z,15.32
2023-04-20T05:27:04.497Z,9.32
2023-04-20T05:29:36.605Z,9.05
2023-04-20T05:32:08.891Z,13.35
2023-04-20T05:34:41.129Z,7.95
2023-04-20T05:37:13.553Z,18.13
2023-04-20T05:39:45.647Z,13.10
2023-04-20T05:42:17.692Z,14.27
2023-04-20T05:44:49.729Z,11.48
2023-04-20T05:47:21.856Z,9.85
2023-04-20T05:49:56.806Z,15.02
2023-04-20T05:52:28.856Z,15.07
2023-04-20T05:55:00.989Z,13.38
2023-04-20T05:57:33.035Z,15.07
2023-04-20T06:00:06.213Z,15.38
2023-04-20T06:02:38.501Z,15.07
2023-04-20T06:05:11.586Z,11.82
2023-04-20T06:07:43.832Z,9.35
2023-04-20T06:10:16.120Z,14.30
2023-04-20T06:12:48.378Z,15.52
2023-04-20T06:15:20.689Z,10.50
2023-04-20T06:17:52.939Z,11.18
2023-04-20T06:20:25.225Z,11.10
2023-04-20T06:22:57.367Z,10.40
2023-04-20T06:25:29.614Z,32.33
2023-04-20T06:28:01.772Z,18.40
2023-04-20T06:30:34.675Z,15.57
2023-04-20T06:33:08.044Z,8.98
2023-04-20T06:35:41.792Z,16.95
2023-04-20T06:38:24.270Z,16.83
2023-04-20T06:40:59.005Z,9.10
2023-04-20T06:43:31.836Z,19.05
2023-04-20T06:46:04.572Z,20.10
2023-04-20T06:48:38.978Z,15.00
2023-04-20T06:51:14.184Z,20.75
2023-04-20T06:53:46.650Z,15.07
2023-04-20T06:56:18.910Z,16.65
2023-04-20T06:58:51.251Z,14.55
2023-04-20T07:01:23.473Z,15.73
2023-04-20T07:04:48.819Z,12.25
2023-04-20T07:07:21.442Z,13.48
2023-04-20T07:09:54.892Z,16.40
2023-04-20T07:12:27.098Z,14.60
2023-04-20T07:14:59.453Z,11.10
2023-04-20T07:17:32.748Z,15.63
2023-04-20T07:20:09.547Z,18.65
2023-04-20T07:22:41.907Z,15.55
2023-04-20T07:25:14.578Z,20.92
2023-04-20T07:27:46.980Z,15.05
2023-04-20T07:30:19.203Z,11.05
2023-04-20T07:32:51.396Z,13.55
2023-04-20T07:35:23.976Z,15.32
2023-04-20T07:37:56.336Z,20.40
2023-04-20T07:40:28.992Z,21.05
2023-04-20T07:43:03.862Z,17.83
2023-04-20T07:45:36.102Z,10.52
2023-04-20T07:48:09.857Z,14.40
2023-04-20T07:50:42.391Z,16.25
2023-04-20T07:53:14.562Z,14.85
2023-04-20T07:55:47.413Z,17.90
2023-04-20T07:58:21.835Z,21.90
2023-04-20T08:00:53.906Z,12.73
2023-04-20T08:06:16.342Z,14.73
2023-04-20T08:08:48.654Z,20.25
2023-04-20T08:11:21.853Z,14.88
2023-04-20T08:13:55.022Z,13.60
2023-04-20T08:16:28.334Z,14.15
2023-04-20T08:19:01.948Z,14.73
2023-04-20T08:21:35.657Z,22.73
2023-04-20T08:24:08.986Z,13.00
2023-04-20T08:26:41.108Z,13.35
2023-04-20T08:29:13.336Z,17.75
2023-04-20T08:31:45.642Z,15.57
2023-04-20T08:34:19.139Z,17.42
2023-04-20T08:36:51.585Z,19.38
2023-04-20T08:39:24.489Z,20.85
2023-04-20T08:41:57.552Z,15.68
2023-04-20T08:44:29.775Z,15.32
2023-04-20T08:47:03.275Z,16.98
2023-04-20T08:49:36.352Z,16.50
2023-04-20T08:52:13.920Z,19.35
2023-04-20T08:54:56.122Z,19.40
2023-04-20T08:57:29.206Z,28.13
2023-04-20T09:00:05.799Z,16.67
2023-04-20T09:02:53.536Z,13.57
2023-04-20T09:05:32.333Z,13.35
2023-04-20T09:08:05.446Z,14.63
2023-04-20T09:10:43.814Z,14.90
2023-04-20T09:13:23.639Z,15.10
2023-04-20T09:15:55.865Z,18.38
2023-04-20T09:18:27.958Z,11.68
2023-04-20T09:21:09.761Z,18.35
2023-04-20T09:23:42.005Z,19.17
2023-04-20T09:26:19.133Z,11.35
2023-04-20T09:28:51.309Z,15.55
2023-04-20T09:31:24.681Z,18.63
2023-04-20T09:34:03.176Z,13.70
2023-04-20T09:36:37.691Z,11.90
2023-04-20T09:39:21.600Z,14.82
2023-04-20T09:41:53.635Z,13.60
2023-04-20T09:44:25.912Z,15.95
2023-04-20T09:46:58.656Z,15.50
2023-04-20T09:49:30.895Z,13.73
2023-04-20T09:52:04.734Z,15.43
2023-04-20T09:54:38.759Z,15.98
2023-04-20T09:57:13.112Z,12.57
2023-04-20T09:59:47.719Z,14.63
2023-04-20T10:02:19.949Z,14.48
2023-04-20T10:04:57.569Z,12.82
2023-04-20T10:07:32.118Z,15.48
2023-04-20T10:10:12.880Z,8.43
2023-04-20T10:12:53.100Z,15.10
2023-04-20T10:15:40.682Z,10.88
2023-04-20T10:18:21.252Z,9.93
2023-04-20T10:21:07.178Z,10.98
2023-04-20T10:23:50.616Z,12.90
2023-04-20T10:26:23.644Z,9.77
2023-04-20T10:28:55.827Z,12.25
2023-04-20T10:31:38.133Z,8.95
2023-04-20T10:34:10.361Z,11.65
2023-04-20T10:36:42.966Z,11.02
2023-04-20T10:39:21.039Z,8.73
2023-04-20T10:42:03.674Z,13.27
2023-04-20T10:44:36.030Z,13.30
2023-04-20T10:47:08.149Z,11.30
2023-04-20T10:49:40.378Z,13.77
2023-04-20T10:52:13.345Z,11.30
2023-04-20T10:54:46.687Z,11.30
2023-04-20T10:57:18.805Z,15.05
2023-04-20T10:59:50.999Z,12.10
2023-04-20T11:02:23.750Z,8.98
2023-04-20T11:05:01.158Z,14.13
2023-04-20T11:07:33.610Z,13.32
2023-04-20T11:10:08.202Z,15.60
2023-04-20T11:12:40.466Z,9.73
2023-04-20T11:15:13.638Z,11.88
2023-04-20T11:21:42.960Z,12.32
2023-04-20T11:24:27.032Z,14.65
2023-04-20T11:26:59.692Z,18.95
2023-04-20T11:29:33.752Z,16.02
2023-04-20T11:32:11.323Z,11.27
2023-04-20T11:34:46.104Z,12.00
2023-04-20T11:37:20.130Z,12.50
2023-04-20T11:40:09.801Z,10.95
2023-04-20T11:42:41.988Z,9.07
2023-04-20T11:45:18.189Z,12.90
2023-04-20T11:47:51.293Z,8.38
2023-04-20T11:50:23.917Z,9.48
2023-04-20T11:52:56.043Z,12.85
2023-04-20T11:55:28.218Z,10.63
2023-04-20T11:58:00.436Z,7.20
2023-04-20T12:00:32.650Z,8.32
2023-04-20T12:03:12.553Z,13.57
2023-04-20T12:08:17.506Z,12.77
2023-04-20T12:14:42.003Z,8.75
2023-04-20T12:17:14.117Z,9.05
2023-04-20T12:19:46.226Z,12.55
2023-04-20T12:22:23.638Z,12.48
2023-04-20T12:24:55.908Z,9.55
2023-04-20T12:27:28.336Z,7.75
2023-04-20T12:30:00.686Z,9.80
2023-04-20T12:32:36.427Z,8.15
2023-04-20T12:35:09.772Z,8.02
2023-04-20T12:37:41.873Z,10.07
2023-04-20T12:40:14.173Z,10.40
2023-04-20T12:42:46.495Z,6.93
2023-04-20T12:45:18.870Z,11.43
2023-04-20T12:48:11.440Z,9.32
2023-04-20T12:50:43.965Z,8.15
2023-04-20T12:53:16.067Z,8.63
2023-04-20T12:55:49.540Z,11.15
2023-04-20T12:58:28.115Z,9.25
2023-04-20T13:01:00.527Z,8.10
2023-04-20T13:03:33.090Z,10.27
2023-04-20T13:06:06.336Z,7.20
2023-04-20T13:08:38.447Z,7.90
2023-04-20T13:11:15.670Z,9.05
2023-04-20T13:13:47.750Z,10.43
2023-04-20T13:16:19.872Z,12.10
2023-04-20T13:18:52.153Z,14.05
2023-04-20T13:25:26.848Z,8.90
2023-04-20T13:27:59.706Z,9.45
2023-04-20T13:30:32.570Z,13.80
2023-04-20T13:33:04.720Z,9.75
2023-04-20T13:35:37.396Z,9.80
2023-04-20T13:38:09.490Z,9.45
2023-04-20T13:40:44.357Z,9.80
2023-04-20T13:43:16.732Z,12.68
2023-04-20T13:45:50.462Z,10.23
2023-04-20T13:48:22.717Z,13.00
2023-04-20T13:50:54.948Z,12.65
2023-04-20T13:53:27.654Z,11.25
2023-04-20T13:55:59.954Z,11.98
2023-04-20T13:58:32.250Z,14.07
2023-04-20T14:01:17.750Z,11.85
2023-04-20T14:03:52.001Z,13.05
2023-04-20T14:06:24.328Z,13.57
2023-04-20T14:08:56.551Z,22.13
2023-04-20T14:11:28.743Z,16.95
2023-04-20T14:14:01.118Z,26.67
2023-04-20T14:16:33.524Z,12.68
2023-04-20T14:19:05.680Z,9.88
2023-04-20T14:21:38.013Z,11.65
2023-04-20T14:24:11.716Z,9.80
2023-04-20T14:26:44.037Z,11.07
2023-04-20T14:29:16.851Z,12.52
2023-04-20T14:32:11.161Z,9.40
2023-04-20T14:34:43.259Z,11.20
2023-04-20T14:37:15.598Z,13.05
2023-04-20T14:39:47.799Z,11.43
2023-04-20T14:42:19.966Z,16.02
2023-04-20T14:45:41.700Z,9.93
2023-04-20T14:48:13.935Z,10.23
2023-04-20T14:50:46.051Z,13.82
2023-04-20T14:53:18.105Z,16.73
2023-04-20T14:55:51.491Z,12.48
2023-04-20T14:58:23.925Z,13.23
2023-04-20T15:00:56.081Z,9.48
2023-04-20T15:03:28.404Z,9.00
2023-04-20T15:06:02.607Z,10.98
2023-04-20T15:08:34.914Z,16.90
2023-04-20T15:11:09.183Z,13.18
2023-04-20T15:13:42.554Z,12.13
2023-04-20T15:16:15.152Z,13.45
2023-04-20T15:18:47.367Z,15.43
2023-04-20T15:21:23.648Z,14.70
2023-04-20T15:23:55.779Z,13.23
2023-04-20T15:26:28.059Z,13.50
2023-04-20T15:29:00.317Z,12.07
2023-04-20T15:31:32.565Z,15.65
2023-04-20T15:34:04.756Z,11.88
2023-04-20T15:36:36.907Z,15.23
2023-04-20T15:39:53.735Z,12.10
2023-04-20T15:42:26.484Z,15.85
2023-04-20T15:44:58.632Z,12.98
2023-04-20T15:48:09.363Z,14.18
2023-04-20T15:50:41.632Z,12.50
2023-04-20T15:53:13.882Z,12.90
2023-04-20T15:55:46.979Z,15.80
2023-04-20T15:58:19.230Z,16.30
2023-04-20T16:00:51.410Z,14.70
2023-04-20T16:03:23.952Z,17.10
2023-04-20T16:05:56.148Z,15.98
2023-04-20T16:08:28.281Z,19.17
2023-04-20T16:11:00.655Z,14.90
2023-04-20T16:13:33.078Z,15.70
2023-04-20T16:16:05.484Z,15.57
2023-04-20T16:18:37.782Z,14.73
2023-04-20T16:21:10.005Z,13.73
2023-04-20T16:23:42.148Z,14.30
2023-04-20T16:26:14.369Z,13.13
2023-04-20T16:28:46.665Z,12.38
2023-04-20T16:31:20.584Z,15.70
2023-04-20T16:33:53.056Z,15.55
2023-04-20T16:36:25.858Z,12.63
2023-04-20T16:38:58.081Z,12.90
2023-04-20T16:41:30.225Z,13.43
2023-04-20T16:44:02.328Z,19.13
2023-04-20T16:46:34.558Z,12.73
2023-04-20T16:49:06.800Z,13.68
2023-04-20T16:51:39.076Z,13.05
2023-04-20T16:54:11.845Z,16.70
2023-04-20T16:57:09.624Z,14.27
2023-04-20T16:59:42.187Z,17.20
2023-04-20T17:02:16.108Z,14.70
2023-04-20T17:04:48.216Z,19.30
2023-04-20T17:07:20.471Z,13.65
2023-04-20T17:11:09.189Z,17.20
2023-04-20T17:13:41.351Z,18.75
2023-04-20T17:16:13.531Z,14.93
2023-04-20T17:18:45.778Z,15.45
2023-04-20T17:21:18.185Z,21.52
2023-04-20T17:23:50.345Z,13.60
2023-04-20T17:26:22.371Z,15.77
2023-04-20T17:28:54.719Z,15.10
2023-04-20T17:31:26.874Z,16.52
2023-04-20T17:33:59.877Z,16.35
2023-04-20T17:36:32.150Z,17.42
2023-04-20T17:39:04.400Z,15.07
2023-04-20T17:41:36.544Z,17.02
2023-04-20T17:44:11.592Z,18.67
2023-04-20T17:46:44.318Z,18.05
2023-04-20T17:49:16.471Z,15.50
2023-04-20T17:51:48.520Z,18.10
2023-04-20T17:54:20.831Z,14.88
2023-04-20T17:56:53.063Z,17.17
2023-04-20T17:59:25.177Z,14.75
2023-04-20T18:01:57.327Z,17.48
2023-04-20T18:04:29.738Z,20.52
2023-04-20T18:07:02.021Z,17.80
2023-04-20T18:09:34.167Z,17.27
2023-04-20T18:12:13.342Z,17.98
2023-04-20T18:14:46.339Z,21.02
2023-04-20T18:17:18.559Z,16.73
2023-04-20T18:19:50.761Z,23.15
2023-04-20T18:22:24.393Z,18.65
2023-04-20T18:24:56.521Z,18.67
2023-04-20T18:27:28.622Z,17.15
2023-04-20T18:30:01.787Z,16.33
2023-04-20T18:32:36.326Z,18.30
2023-04-20T18:35:09.718Z,19.85
2023-04-20T18:37:41.889Z,18.83
2023-04-20T18:40:16.093Z,17.77
2023-04-20T18:42:50.383Z,21.00
2023-04-20T18:45:24.086Z,19.73
2023-04-20T18:47:58.321Z,19.65
2023-04-20T18:50:30.438Z,19.40
2023-04-20T18:53:02.557Z,18.98
2023-04-20T18:55:34.847Z,24.23
2023-04-20T18:58:07.143Z,25.30
2023-04-20T19:00:42.202Z,77.82
2023-04-20T19:03:14.490Z,61.75
2023-04-20T19:05:46.917Z,39.67
2023-04-20T19:08:18.985Z,29.05
2023-04-20T19:10:51.442Z,20.90
2023-04-20T19:13:24.024Z,23.70
2023-04-20T19:15:59.510Z,21.35
2023-04-20T19:18:31.713Z,22.38
2023-04-20T19:21:04.108Z,24.60
2023-04-20T19:23:36.410Z,24.45
2023-04-20T19:26:08.894Z,23.73
2023-04-20T19:28:41.008Z,23.92
2023-04-20T19:31:13.838Z,27.05
2023-04-20T19:33:46.113Z,29.55
2023-04-20T19:36:19.461Z,27.38
2023-04-20T19:38:51.596Z,29.73
2023-04-20T19:41:23.709Z,29.25
2023-04-20T19:43:57.084Z,34.33
2023-04-20T19:49:39.362Z,33.38
2023-04-20T19:52:14.544Z,26.00
2023-04-20T19:54:47.764Z,29.98
2023-04-20T19:57:19.935Z,33.03
2023-04-20T19:59:52.242Z,33.42
2023-04-20T20:02:24.645Z,34.08
2023-04-20T20:04:57.059Z,32.40
2023-04-20T20:07:29.194Z,33.08
2023-04-20T20:10:01.701Z,32.60
2023-04-20T20:12:33.987Z,38.70
2023-04-20T20:17:58.790Z,38.35
2023-04-20T20:20:34.547Z,35.15
2023-04-20T20:23:10.619Z,36.20
2023-04-20T20:25:42.870Z,37.50
2023-04-20T20:28:15.555Z,38.42
2023-04-20T20:33:38.662Z,39.97
2023-04-20T20:36:10.856Z,37.97
2023-04-20T20:38:43.767Z,37.65
2023-04-20T20:41:16.767Z,34.80
2023-04-20T20:43:51.039Z,34.35
2023-04-20T20:46:23.298Z,43.75
2023-04-20T20:48:56.476Z,43.72
2023-04-20T20:51:29.158Z,42.95
2023-04-20T20:54:19.465Z,38.58
2023-04-20T20:59:40.185Z,38.33
2023-04-20T21:05:37.261Z,33.97
2023-04-20T21:08:13.124Z,40.47
2023-04-20T21:10:45.445Z,35.03
2023-04-20T21:13:19.432Z,36.20
2023-04-20T21:15:51.993Z,32.17
2023-04-20T21:18:24.315Z,36.63
2023-04-20T21:20:56.477Z,37.08
2023-04-20T21:23:28.598Z,37.85
2023-04-20T21:26:00.844Z,34.97
2023-04-20T21:28:34.072Z,33.72
2023-04-20T21:31:12.575Z,33.83
2023-04-20T21:33:44.629Z,39.80
2023-04-20T21:36:16.744Z,31.25
2023-04-20T21:38:49.069Z,30.38
2023-04-20T21:41:22.093Z,27.65
2023-04-20T21:43:54.236Z,32.78
2023-04-20T21:46:26.429Z,36.45
2023-04-20T21:48:58.659Z,32.17
2023-04-20T21:51:32.096Z,32.08
2023-04-20T21:54:04.283Z,29.52
2023-04-20T21:56:36.378Z,27.92
2023-04-20T21:59:08.548Z,32.80
2023-04-20T22:01:40.810Z,41.92
2023-04-20T22:04:14.081Z,29.17
2023-04-20T22:06:47.088Z,37.60
2023-04-20T22:09:20.059Z,26.90
2023-04-20T22:11:56.104Z,26.75
2023-04-20T22:14:28.464Z,22.90
2023-04-20T22:17:01.970Z,30.67
2023-04-20T22:19:34.131Z,35.00
2023-04-20T22:22:06.380Z,32.25
2023-04-20T22:24:38.533Z,26.67
2023-04-20T22:31:06.905Z,24.88
2023-04-20T22:33:39.149Z,28.23
2023-04-20T22:36:11.271Z,32.17
2023-04-20T22:38:43.545Z,25.52
2023-04-20T22:41:17.421Z,27.83
2023-04-20T22:43:49.821Z,28.77
2023-04-20T22:46:22.173Z,28.42
2023-04-20T22:48:54.512Z,25.70
2023-04-20T22:51:29.151Z,31.17
2023-04-20T22:54:02.724Z,27.73
2023-04-20T22:56:35.382Z,25.98
2023-04-20T22:59:07.677Z,26.33
2023-04-20T23:01:39.781Z,23.58
2023-04-20T23:04:12.027Z,22.17
2023-04-20T23:06:45.611Z,26.80
2023-04-20T23:09:21.072Z,25.33
2023-04-20T23:11:53.980Z,24.67
2023-04-20T23:14:28.218Z,25.85
2023-04-20T23:17:00.373Z,29.27
2023-04-20T23:19:33.596Z,25.77
2023-04-20T23:22:09.122Z,31.75
2023-04-20T23:24:41.227Z,28.92
2023-04-20T23:27:13.380Z,25.15
2023-04-20T23:29:45.608Z,24.38
2023-04-20T23:32:17.763Z,24.13
2023-04-20T23:34:49.812Z,29.10
2023-04-20T23:37:21.929Z,24.98
2023-04-20T23:39:53.985Z,24.50
2023-04-20T23:42:26.069Z,23.73
2023-04-20T23:45:00.353Z,22.30
2023-04-20T23:47:32.765Z,27.80
2023-04-20T23:50:10.433Z,25.00
2023-04-20T23:52:42.605Z,28.80
2023-04-20T23:55:14.932Z,24.40
2023-04-20T23:58:09.224Z,25.98
